Time;durP1;ratioP1;P1;durP2;ratioP2;P2;SDS_P1;SDS_P2;PMS_P1;PMS_P2;Temp;Humidity;BMP_temperature;BMP_pressure;BME280_temperature;BME280_humidity;BME280_pressure;Samples;Min_cycle;Max_cycle;Signal;HPM_P1;HPM_P2
2023/02/13 00:01:51;;;;;;;8.52;5.80;;;7.30;99.90;;;;;;5114287;28;20051;-40
2023/02/13 00:04:17;;;;;;;7.38;5.07;;;7.30;99.90;;;;;;5114406;28;20065;-42
2023/02/13 00:06:43;;;;;;;9.52;5.50;;;7.50;99.90;;;;;;5113784;28;20055;-42
2023/02/13 00:09:09;;;;;;;7.72;5.28;;;7.70;99.90;;;;;;5113317;28;20072;-41
2023/02/13 00:11:36;;;;;;;7.93;4.95;;;7.80;99.90;;;;;;5113906;28;20031;-41
2023/02/13 00:14:02;;;;;;;7.32;5.15;;;7.90;99.90;;;;;;5114750;28;20039;-40
2023/02/13 00:16:27;;;;;;;9.20;5.80;;;7.80;99.90;;;;;;5113411;28;20121;-38
2023/02/13 00:18:53;;;;;;;9.88;5.95;;;7.80;99.90;;;;;;5114505;28;20027;-38
2023/02/13 00:21:19;;;;;;;9.70;5.28;;;7.70;99.90;;;;;;5114124;28;20024;-39
2023/02/13 00:23:44;;;;;;;8.32;5.50;;;7.70;99.90;;;;;;5114189;28;20469;-41
2023/02/13 00:26:12;;;;;;;8.02;5.30;;;7.60;99.90;;;;;;5113812;28;20023;-42
2023/02/13 00:28:39;;;;;;;9.45;5.68;;;7.50;99.90;;;;;;5114502;28;20020;-38
2023/02/13 00:31:06;;;;;;;8.18;5.63;;;7.50;99.90;;;;;;5114411;28;20023;-41
2023/02/13 00:33:32;;;;;;;7.95;5.07;;;7.40;99.90;;;;;;5114228;28;20051;-41
2023/02/13 00:36:02;;;;;;;8.40;5.55;;;7.40;99.90;;;;;;5114421;28;20038;-39
2023/02/13 00:38:29;;;;;;;9.65;5.70;;;7.40;99.90;;;;;;5113921;28;20070;-42
2023/02/13 00:40:55;;;;;;;10.13;5.43;;;7.30;99.90;;;;;;5114573;28;20019;-41
2023/02/13 00:43:20;;;;;;;8.88;5.38;;;7.30;99.90;;;;;;5113712;28;20119;-41
2023/02/13 00:45:46;;;;;;;8.80;5.43;;;7.30;99.90;;;;;;5113904;28;20028;-42
2023/02/13 00:48:12;;;;;;;8.77;5.63;;;7.30;99.90;;;;;;5114210;28;20027;-39
2023/02/13 00:50:37;;;;;;;8.82;5.65;;;7.20;99.90;;;;;;5114290;28;20023;-41
2023/02/13 00:53:03;;;;;;;8.25;5.28;;;7.20;99.90;;;;;;5113695;27;20028;-40
2023/02/13 00:55:28;;;;;;;9.07;5.53;;;7.20;99.90;;;;;;5113398;28;20473;-38
2023/02/13 00:57:54;;;;;;;8.95;5.70;;;7.20;99.90;;;;;;5114122;28;20061;-41
2023/02/13 01:00:19;;;;;;;8.45;5.38;;;7.20;99.90;;;;;;5113582;28;20405;-42
2023/02/13 01:02:46;;;;;;;10.73;6.15;;;7.20;99.90;;;;;;5113374;28;20033;-41
2023/02/13 01:05:12;;;;;;;9.55;6.10;;;7.30;99.90;;;;;;5114002;28;20486;-42
2023/02/13 01:07:38;;;;;;;8.38;5.53;;;7.50;99.90;;;;;;5113952;28;20028;-42
2023/02/13 01:10:04;;;;;;;8.57;5.22;;;7.70;99.90;;;;;;5113106;28;20024;-41
2023/02/13 01:12:30;;;;;;;9.98;5.88;;;7.80;99.90;;;;;;5113298;28;20027;-41
2023/02/13 01:14:55;;;;;;;9.00;6.10;;;7.80;99.90;;;;;;5113623;28;20028;-41
2023/02/13 01:17:21;;;;;;;9.63;5.78;;;7.80;99.90;;;;;;5113013;28;20023;-40
2023/02/13 01:19:47;;;;;;;8.50;5.70;;;7.70;99.90;;;;;;5113085;28;20059;-37
2023/02/13 01:22:12;;;;;;;8.27;5.65;;;7.60;99.90;;;;;;5112789;28;20098;-42
2023/02/13 01:24:38;;;;;;;9.80;5.70;;;7.60;99.90;;;;;;5114200;28;20032;-41
2023/02/13 01:27:04;;;;;;;8.93;5.72;;;7.50;99.90;;;;;;5113291;28;20434;-41
2023/02/13 01:29:29;;;;;;;10.25;5.90;;;7.50;99.90;;;;;;5114226;28;20027;-39
2023/02/13 01:31:55;;;;;;;10.43;5.43;;;7.40;99.90;;;;;;5113556;28;20110;-40
2023/02/13 01:34:21;;;;;;;8.70;5.80;;;7.40;99.90;;;;;;5113675;28;20325;-39
2023/02/13 01:36:47;;;;;;;9.73;5.93;;;7.30;99.90;;;;;;5113254;28;20401;-41
2023/02/13 01:39:13;;;;;;;8.07;5.40;;;7.30;99.90;;;;;;5112058;28;20550;-42
2023/02/13 01:41:39;;;;;;;9.48;5.78;;;7.20;99.90;;;;;;5112367;28;20016;-41
2023/02/13 01:44:43;;;;;;;9.32;5.82;;;7.20;99.90;;;;;;5111624;28;20038;-41
2023/02/13 01:47:11;;;;;;;7.70;5.03;;;7.20;99.90;;;;;;5096093;28;20496;-42
2023/02/13 01:49:36;;;;;;;9.43;5.78;;;7.20;99.90;;;;;;5112270;28;20059;-38
2023/02/13 01:52:02;;;;;;;10.73;6.00;;;7.20;99.90;;;;;;5112445;28;20504;-38
2023/02/13 01:54:31;;;;;;;8.48;5.82;;;7.10;99.90;;;;;;5112972;28;20023;-41
2023/02/13 01:57:04;;;;;;;9.95;5.85;;;7.10;99.90;;;;;;5112057;28;20488;-38
2023/02/13 01:59:36;;;;;;;12.20;6.25;;;7.10;99.90;;;;;;5113351;28;20055;-37
2023/02/13 02:02:03;;;;;;;9.52;6.20;;;7.10;99.90;;;;;;5112349;28;20036;-41
2023/02/13 02:04:32;;;;;;;11.18;6.18;;;7.20;99.90;;;;;;5094321;28;20051;-40
2023/02/13 02:07:05;;;;;;;9.07;5.82;;;7.40;99.90;;;;;;5113291;28;20458;-42
2023/02/13 02:09:37;;;;;;;9.50;5.82;;;7.60;99.90;;;;;;5113409;28;20019;-41
2023/02/13 02:12:16;;;;;;;11.20;6.15;;;7.70;99.90;;;;;;5113215;28;20520;-41
2023/02/13 02:14:43;;;;;;;8.90;5.60;;;7.80;99.90;;;;;;5112722;28;20104;-42
2023/02/13 02:17:09;;;;;;;7.55;5.35;;;7.70;99.90;;;;;;5110382;28;20023;-42
2023/02/13 02:19:47;;;;;;;8.93;5.53;;;7.70;99.90;;;;;;5112367;28;20081;-42
2023/02/13 02:22:49;;;;;;;9.95;5.72;;;7.60;99.90;;;;;;5113247;28;20023;-41
2023/02/13 02:25:18;;;;;;;9.70;5.95;;;7.50;99.90;;;;;;5112788;28;20039;-38
2023/02/13 02:28:02;;;;;;;8.15;5.18;;;7.40;99.90;;;;;;5111922;28;20027;-38
2023/02/13 02:30:28;;;;;;;;;;;7.30;99.90;;;;;;5112370;28;20080;-41
2023/02/13 02:33:02;;;;;;;9.80;5.88;;;7.30;99.90;;;;;;5111423;28;20010;-38
2023/02/13 02:35:37;;;;;;;10.23;5.90;;;7.30;99.90;;;;;;5111536;28;20027;-41
2023/02/13 02:38:15;;;;;;;11.77;5.80;;;7.20;99.90;;;;;;5112804;28;20023;-40
2023/02/13 02:40:54;;;;;;;8.15;5.22;;;7.20;99.90;;;;;;5112616;28;20441;-39
2023/02/13 02:43:50;;;;;;;10.40;6.22;;;7.20;99.90;;;;;;5113068;28;20284;-37
2023/02/13 02:49:58;;;;;;;9.57;5.25;;;7.10;99.90;;;;;;5111821;28;20349;-38
2023/02/13 02:52:47;;;;;;;9.68;5.68;;;7.10;99.90;;;;;;5111878;28;20024;-42
2023/02/13 02:55:39;;;;;;;10.20;5.82;;;7.10;99.90;;;;;;5111650;28;20024;-41
2023/02/13 03:07:02;;;;;;;9.75;5.85;;;7.20;99.90;;;;;;5112135;28;20077;-35
2023/02/13 03:15:08;;;;;;;9.73;5.88;;;7.70;99.90;;;;;;5112531;28;20063;-33
2023/02/13 03:23:50;;;;;;;8.48;5.38;;;7.50;99.90;;;;;;5112131;28;20043;-32
2023/02/13 03:26:54;;;;;;;11.93;6.53;;;7.40;99.90;;;;;;5110964;28;20026;-36
2023/02/13 03:32:41;;;;;;;9.07;5.97;;;7.30;99.90;;;;;;5111227;28;20039;-34
2023/02/13 03:38:43;;;;;;;9.27;5.97;;;7.20;99.90;;;;;;5111243;28;20066;-35
2023/02/13 03:41:21;;;;;;;8.25;5.72;;;7.10;99.90;;;;;;5112100;28;20063;-32
2023/02/13 03:44:10;;;;;;;9.07;5.68;;;7.10;99.90;;;;;;5111404;28;20028;-35
2023/02/13 03:46:40;;;;;;;8.85;5.78;;;7.00;99.90;;;;;;5108704;28;20039;-34
2023/02/13 03:52:09;;;;;;;9.07;5.82;;;7.00;99.90;;;;;;5115506;28;20436;-35
2023/02/13 04:00:19;;;;;;;9.60;5.85;;;6.90;99.90;;;;;;5114543;28;20119;-35
2023/02/13 04:03:30;;;;;;;8.77;5.50;;;6.90;99.90;;;;;;5115036;28;20030;-36
2023/02/13 04:06:10;;;;;;;8.77;5.50;;;7.00;99.90;;;;;;5071585;28;20043;-38
2023/02/13 04:08:36;;;;;;;8.30;5.55;;;7.30;99.90;;;;;;5112400;28;20036;-34
2023/02/13 04:11:29;;;;;;;8.65;5.15;;;7.50;99.90;;;;;;5114582;28;20462;-33
2023/02/13 04:14:02;;;;;;;8.73;5.70;;;7.60;99.90;;;;;;5113465;28;20073;-37
2023/02/13 04:16:39;;;;;;;7.82;5.30;;;7.60;99.90;;;;;;5114265;28;20481;-42
2023/02/13 04:19:06;;;;;;;7.55;5.05;;;7.60;99.90;;;;;;5114679;28;20024;-39
2023/02/13 04:21:37;;;;;;;8.23;5.35;;;7.50;99.90;;;;;;5115006;28;20031;-37
2023/02/13 04:24:03;;;;;;;8.73;5.85;;;7.40;99.90;;;;;;5114075;28;20489;-41
2023/02/13 04:26:37;;;;;;;9.95;5.85;;;7.30;99.90;;;;;;5114050;28;20038;-41
2023/02/13 04:29:04;;;;;;;9.63;5.90;;;7.30;99.90;;;;;;5114642;28;20016;-41
2023/02/13 04:31:30;;;;;;;8.35;5.53;;;7.20;99.90;;;;;;5114510;28;20023;-42
2023/02/13 04:33:55;;;;;;;8.88;5.93;;;7.20;99.90;;;;;;5114645;27;20037;-40
2023/02/13 04:36:21;;;;;;;9.75;6.50;;;7.10;99.90;;;;;;5114794;28;20102;-42
2023/02/13 04:38:47;;;;;;;9.57;5.88;;;7.10;99.90;;;;;;5113875;28;20024;-40
2023/02/13 04:41:13;;;;;;;7.97;5.30;;;7.00;99.90;;;;;;5114286;28;20031;-40
2023/02/13 04:43:38;;;;;;;8.43;5.40;;;7.00;99.90;;;;;;5113608;28;20045;-40
2023/02/13 04:46:04;;;;;;;8.82;5.55;;;7.00;99.90;;;;;;5114178;28;20111;-42
2023/02/13 04:48:30;;;;;;;7.68;5.18;;;6.90;99.90;;;;;;5114515;27;20500;-41
2023/02/13 04:50:56;;;;;;;8.95;5.60;;;6.90;99.90;;;;;;5113635;28;20020;-42
2023/02/13 04:53:21;;;;;;;8.57;5.32;;;6.90;99.90;;;;;;5112318;28;20392;-41
2023/02/13 04:55:47;;;;;;;8.13;5.10;;;6.80;99.90;;;;;;5112965;28;20027;-39
2023/02/13 04:58:13;;;;;;;8.32;5.88;;;6.80;99.90;;;;;;5112460;28;20133;-42
2023/02/13 05:00:38;;;;;;;8.73;5.40;;;6.80;99.90;;;;;;5113270;28;20035;-42
2023/02/13 05:03:06;;;;;;;9.02;5.63;;;6.80;99.90;;;;;;5113276;28;20049;-42
2023/02/13 05:05:32;;;;;;;8.27;5.32;;;7.00;99.90;;;;;;5113351;28;20034;-40
2023/02/13 05:07:58;;;;;;;9.13;5.63;;;7.20;99.90;;;;;;5113389;28;20062;-40
2023/02/13 05:10:24;;;;;;;8.65;5.40;;;7.50;99.90;;;;;;5113259;28;20040;-41
2023/02/13 05:12:49;;;;;;;8.32;4.78;;;7.60;99.90;;;;;;5113255;28;20488;-37
2023/02/13 05:15:15;;;;;;;8.68;5.40;;;7.60;99.90;;;;;;5113182;28;20469;-42
2023/02/13 05:17:45;;;;;;;8.90;5.13;;;7.60;99.90;;;;;;5113010;28;20024;-41
2023/02/13 05:20:12;;;;;;;10.73;5.45;;;7.40;99.90;;;;;;5113054;28;20066;-41
2023/02/13 05:25:27;;;;;;;7.90;5.57;;;7.30;99.90;;;;;;5113637;28;20114;-42
2023/02/13 05:27:53;;;;;;;8.82;4.97;;;7.20;99.90;;;;;;5112856;28;20098;-39
2023/02/13 05:30:18;;;;;;;7.30;5.10;;;7.10;99.90;;;;;;5113252;28;20457;-39
2023/02/13 05:32:44;;;;;;;8.82;5.70;;;7.10;99.90;;;;;;5112992;28;20020;-41
2023/02/13 05:35:10;;;;;;;9.60;5.15;;;7.00;99.90;;;;;;5112789;28;20031;-41
2023/02/13 05:37:36;;;;;;;8.00;5.57;;;7.00;99.90;;;;;;5112750;28;20023;-41
2023/02/13 05:40:01;;;;;;;17.70;10.38;;;6.90;99.90;;;;;;5112649;28;20481;-41
2023/02/13 05:42:27;;;;;;;16.02;10.30;;;6.70;99.90;;;;;;5113142;28;20435;-40
2023/02/13 05:44:53;;;;;;;16.90;10.55;;;6.40;99.90;;;;;;5111912;28;20020;-40
2023/02/13 05:47:19;;;;;;;18.13;10.13;;;6.20;99.90;;;;;;5113090;28;20039;-38
2023/02/13 05:49:44;;;;;;;16.77;9.88;;;6.10;99.90;;;;;;5112471;28;20500;-41
2023/02/13 05:52:10;;;;;;;18.33;10.00;;;6.00;99.90;;;;;;5112977;28;20051;-42
2023/02/13 05:54:37;;;;;;;18.55;9.10;;;6.00;99.90;;;;;;5112508;28;20055;-41
2023/02/13 05:57:03;;;;;;;15.02;9.70;;;6.00;99.90;;;;;;5112384;28;20414;-42
2023/02/13 05:59:29;;;;;;;15.18;9.45;;;6.10;99.90;;;;;;5111733;28;20118;-42
2023/02/13 06:01:54;;;;;;;16.58;9.07;;;6.10;99.90;;;;;;5112584;28;20120;-42
2023/02/13 06:04:20;;;;;;;15.65;9.45;;;6.20;99.90;;;;;;5112245;28;20035;-41
2023/02/13 06:06:46;;;;;;;15.63;9.73;;;6.30;99.90;;;;;;5112166;28;20047;-34
2023/02/13 06:09:11;;;;;;;16.02;9.45;;;6.60;99.90;;;;;;5112063;28;20037;-36
2023/02/13 06:11:37;;;;;;;13.23;8.73;;;6.90;99.90;;;;;;5112244;28;20016;-40
2023/02/13 06:14:02;;;;;;;13.07;8.13;;;7.00;99.90;;;;;;5112328;28;20030;-40
2023/02/13 06:16:30;;;;;;;14.50;9.05;;;7.00;99.90;;;;;;5112028;28;20081;-40
2023/02/13 06:18:56;;;;;;;13.70;8.52;;;7.00;99.90;;;;;;5112367;28;20030;-42
2023/02/13 06:21:21;;;;;;;12.80;8.32;;;6.90;99.90;;;;;;5112053;28;20066;-42
2023/02/13 06:23:47;;;;;;;14.23;8.18;;;6.90;99.90;;;;;;5111879;28;20030;-42
2023/02/13 06:26:13;;;;;;;13.10;8.40;;;6.80;99.90;;;;;;5112269;28;20534;-42
2023/02/13 06:28:38;;;;;;;15.05;8.43;;;6.80;99.90;;;;;;5112605;28;20020;-41
2023/02/13 06:31:04;;;;;;;13.98;8.05;;;6.70;99.90;;;;;;5112179;28;20400;-43
2023/02/13 06:33:30;;;;;;;11.85;7.60;;;6.70;99.90;;;;;;5112327;28;20492;-42
2023/02/13 06:35:56;;;;;;;15.55;8.13;;;6.70;99.90;;;;;;5112020;28;20023;-35
2023/02/13 06:38:22;;;;;;;13.55;7.97;;;6.60;99.90;;;;;;5111666;28;20106;-35
2023/02/13 06:40:48;;;;;;;12.88;8.15;;;6.60;99.90;;;;;;5111877;28;20034;-32
2023/02/13 06:43:15;;;;;;;11.05;7.60;;;6.60;99.90;;;;;;5112284;28;20034;-33
2023/02/13 06:45:41;;;;;;;14.65;8.27;;;6.50;99.90;;;;;;5112179;28;20031;-33
2023/02/13 06:48:08;;;;;;;12.65;7.90;;;6.50;99.90;;;;;;5112191;28;20020;-35
2023/02/13 06:50:34;;;;;;;14.35;7.65;;;6.50;99.90;;;;;;5112298;28;20453;-34
2023/02/13 06:53:00;;;;;;;16.17;8.55;;;6.50;99.90;;;;;;5111600;28;20055;-33
2023/02/13 06:55:27;;;;;;;16.27;8.55;;;6.50;99.90;;;;;;5111694;28;20426;-32
2023/02/13 06:57:52;;;;;;;13.65;7.70;;;6.50;99.90;;;;;;5112408;28;20026;-33
2023/02/13 07:00:18;;;;;;;12.07;7.82;;;6.50;99.90;;;;;;5110998;28;20039;-37
2023/02/13 07:02:45;;;;;;;15.00;8.73;;;6.40;99.90;;;;;;5112420;28;20016;-33
2023/02/13 07:05:12;;;;;;;15.07;7.80;;;6.50;99.90;;;;;;5110865;28;20030;-36
2023/02/13 07:07:40;;;;;;;13.23;7.50;;;6.70;99.90;;;;;;5111592;28;20095;-33
2023/02/13 07:10:07;;;;;;;15.13;7.53;;;7.00;99.90;;;;;;5111838;28;20046;-34
2023/02/13 07:12:35;;;;;;;13.32;8.20;;;7.10;99.90;;;;;;5111803;28;20487;-33
2023/02/13 07:15:04;;;;;;;13.02;8.07;;;7.10;99.90;;;;;;5111909;28;20039;-34
2023/02/13 07:17:30;;;;;;;13.43;7.60;;;7.00;99.90;;;;;;5111278;28;20031;-32
2023/02/13 07:19:56;;;;;;;12.27;7.55;;;7.00;99.90;;;;;;5112785;28;20035;-35
2023/02/13 07:22:22;;;;;;;12.73;7.25;;;7.00;99.90;;;;;;5116560;28;20033;-34
2023/02/13 07:24:47;;;;;;;11.88;6.93;;;6.90;99.90;;;;;;5116179;28;20027;-32
2023/02/13 07:27:13;;;;;;;21.38;10.95;;;6.90;99.90;;;;;;5115363;28;20019;-34
2023/02/13 07:29:39;;;;;;;18.80;10.57;;;6.60;99.90;;;;;;5097425;28;20027;-40
2023/02/13 07:32:05;;;;;;;19.58;10.02;;;6.30;99.90;;;;;;5116145;28;20028;-34
2023/02/13 07:34:32;;;;;;;20.33;10.30;;;6.10;99.90;;;;;;5115041;28;20027;-35
2023/02/13 07:36:57;;;;;;;16.20;9.88;;;6.00;99.90;;;;;;5115303;28;20496;-31
2023/02/13 07:39:23;;;;;;;15.82;8.68;;;5.90;99.90;;;;;;5115417;28;20028;-36
2023/02/13 07:41:49;;;;;;;17.38;9.38;;;5.80;99.90;;;;;;5115691;28;20032;-32
2023/02/13 07:44:15;;;;;;;15.95;10.15;;;5.80;99.90;;;;;;5115039;28;20059;-34
2023/02/13 07:46:40;;;;;;;14.85;8.90;;;5.80;99.90;;;;;;5114787;28;20063;-34
2023/02/13 07:49:06;;;;;;;15.50;8.82;;;5.90;99.90;;;;;;5114780;28;20108;-33
2023/02/13 07:51:31;;;;;;;17.27;9.27;;;5.80;99.90;;;;;;5114879;28;20088;-34
2023/02/13 07:53:57;;;;;;;15.80;9.30;;;5.90;99.90;;;;;;5115110;28;20024;-33
2023/02/13 07:56:23;;;;;;;14.30;8.45;;;5.90;99.90;;;;;;5113229;28;20038;-32
2023/02/13 07:58:48;;;;;;;15.35;8.55;;;5.90;99.90;;;;;;5115261;28;20118;-32
2023/02/13 08:01:16;;;;;;;14.32;8.10;;;6.00;99.90;;;;;;5114879;28;20031;-36
2023/02/13 08:03:42;;;;;;;17.02;8.52;;;6.00;99.90;;;;;;5114971;28;20059;-35
2023/02/13 08:06:08;;;;;;;14.23;8.50;;;6.00;99.90;;;;;;5115217;28;20024;-34
2023/02/13 08:08:34;;;;;;;13.23;8.02;;;6.00;99.90;;;;;;5116068;28;20023;-33
2023/02/13 08:13:51;;;;;;;14.85;8.55;;;6.10;99.90;;;;;;5115273;28;20111;-33
2023/02/13 08:16:17;;;;;;;12.68;8.10;;;6.10;99.90;;;;;;5113989;28;20028;-37
2023/02/13 08:18:43;;;;;;;13.73;8.63;;;6.20;99.90;;;;;;5114351;28;20085;-37
2023/02/13 08:21:08;;;;;;;13.95;7.43;;;6.20;99.90;;;;;;5115565;28;20023;-33
2023/02/13 08:23:34;;;;;;;12.35;7.57;;;6.20;99.90;;;;;;5115020;28;20024;-33
2023/02/13 08:26:01;;;;;;;11.82;7.05;;;6.20;99.90;;;;;;5114434;28;20116;-35
2023/02/13 08:28:28;;;;;;;10.88;6.63;;;6.30;99.90;;;;;;5115212;28;20364;-32
2023/02/13 08:30:53;;;;;;;11.32;6.93;;;6.30;99.90;;;;;;5115200;28;20023;-35
2023/02/13 08:33:19;;;;;;;12.10;6.40;;;6.40;99.90;;;;;;5115287;28;20171;-35
2023/02/13 08:35:45;;;;;;;11.10;7.22;;;6.40;99.90;;;;;;5114015;28;20020;-37
2023/02/13 08:38:11;;;;;;;11.65;6.47;;;6.40;99.90;;;;;;5113902;28;20031;-32
2023/02/13 08:40:36;;;;;;;10.88;6.93;;;6.40;99.90;;;;;;5113877;28;20075;-32
2023/02/13 08:43:04;;;;;;;13.30;7.50;;;6.50;99.90;;;;;;5113788;28;20358;-33
2023/02/13 08:45:30;;;;;;;10.65;6.80;;;6.50;99.90;;;;;;5113791;28;20485;-32
2023/02/13 08:48:02;;;;;;;15.15;8.77;;;6.60;99.90;;;;;;5113938;28;20026;-43
2023/02/13 08:50:28;;;;;;;12.40;8.73;;;6.50;99.90;;;;;;5114805;28;20043;-41
2023/02/13 08:52:54;;;;;;;14.13;8.45;;;6.50;99.90;;;;;;5115247;28;20034;-38
2023/02/13 08:55:19;;;;;;;15.05;8.93;;;6.50;99.90;;;;;;5112678;28;20305;-41
2023/02/13 08:57:45;;;;;;;13.27;7.45;;;6.60;99.90;;;;;;5113384;28;20027;-41
2023/02/13 09:00:11;;;;;;;12.57;8.27;;;6.60;99.90;;;;;;5114614;28;20107;-43
2023/02/13 09:02:37;;;;;;;13.85;8.15;;;6.70;99.90;;;;;;5114166;28;20032;-43
2023/02/13 09:05:03;;;;;;;11.30;7.93;;;6.80;99.90;;;;;;5114502;28;20020;-43
2023/02/13 09:07:29;;;;;;;11.63;7.38;;;6.90;99.90;;;;;;5113865;28;20027;-43
2023/02/13 09:09:55;;;;;;;11.25;7.68;;;6.90;99.90;;;;;;5113785;28;20443;-39
2023/02/13 09:12:20;;;;;;;12.35;7.75;;;7.00;99.90;;;;;;5113307;28;20034;-41
2023/02/13 09:14:47;;;;;;;10.93;6.82;;;7.10;99.90;;;;;;5113190;28;20023;-44
2023/02/13 09:17:17;;;;;;;10.80;7.03;;;7.20;99.90;;;;;;5113068;28;20071;-43
2023/02/13 09:19:44;;;;;;;11.73;7.10;;;7.20;99.90;;;;;;5113348;28;20103;-43
2023/02/13 09:22:10;;;;;;;10.35;6.43;;;7.30;99.90;;;;;;5113836;28;20020;-43
2023/02/13 09:24:35;;;;;;;10.30;6.60;;;7.30;99.90;;;;;;5114354;28;20080;-42
2023/02/13 09:27:03;;;;;;;9.15;5.78;;;7.40;99.90;;;;;;5113293;28;20030;-43
2023/02/13 09:29:30;;;;;;;8.23;5.82;;;7.50;99.90;;;;;;5113070;28;20031;-44
2023/02/13 09:31:56;;;;;;;9.32;6.20;;;7.50;99.90;;;;;;5112776;28;20564;-43
2023/02/13 09:34:21;;;;;;;9.77;6.38;;;7.60;99.90;;;;;;5112813;28;20039;-40
2023/02/13 09:36:52;;;;;;;8.93;5.72;;;7.70;99.90;;;;;;5113961;28;20031;-44
2023/02/13 09:39:17;;;;;;;10.02;6.10;;;7.70;99.90;;;;;;5111561;28;20515;-44
2023/02/13 09:41:46;;;;;;;9.32;5.55;;;7.70;99.90;;;;;;5112665;28;20038;-44
2023/02/13 09:44:41;;;;;;;13.82;6.07;;;7.70;99.90;;;;;;5112300;28;20385;-41
2023/02/13 09:47:47;;;;;;;8.55;5.45;;;7.80;99.90;;;;;;5112755;28;20020;-42
2023/02/13 09:50:24;;;;;;;7.43;5.07;;;7.80;99.90;;;;;;5089603;28;20063;-40
2023/02/13 09:52:52;;;;;;;8.35;5.57;;;7.80;99.90;;;;;;5112872;27;20031;-43
2023/02/13 09:55:38;;;;;;;7.68;4.97;;;7.90;99.90;;;;;;5112483;28;20495;-43
2023/02/13 09:58:36;;;;;;;8.05;5.35;;;7.90;99.90;;;;;;5112536;28;20094;-42
2023/02/13 10:01:04;;;;;;;8.30;5.40;;;7.90;99.90;;;;;;5112705;28;20035;-44
2023/02/13 10:03:35;;;;;;;8.38;4.75;;;7.90;99.90;;;;;;5112799;28;20020;-43
2023/02/13 10:06:05;;;;;;;10.75;5.03;;;7.90;99.90;;;;;;5112092;28;20028;-40
2023/02/13 10:08:56;;;;;;;8.65;5.68;;;8.00;99.90;;;;;;5113458;27;20027;-43
2023/02/13 10:11:30;;;;;;;6.30;4.45;;;7.90;99.90;;;;;;5112385;28;20073;-43
2023/02/13 10:14:07;;;;;;;6.75;4.70;;;7.90;99.90;;;;;;5113096;28;20470;-43
2023/02/13 10:16:50;;;;;;;7.63;4.80;;;7.90;99.90;;;;;;5111870;28;20024;-39
2023/02/13 10:19:41;;;;;;;6.28;4.78;;;7.90;99.90;;;;;;5112050;28;20508;-42
2023/02/13 10:22:16;;;;;;;6.00;4.50;;;8.00;99.90;;;;;;5112669;28;20536;-44
2023/02/13 10:24:56;;;;;;;7.07;4.53;;;8.00;99.90;;;;;;5111917;28;20031;-43
2023/02/13 10:27:31;;;;;;;6.65;4.80;;;8.00;99.90;;;;;;5111709;28;20015;-42
2023/02/13 10:30:23;;;;;;;5.40;3.88;;;8.00;99.90;;;;;;5112945;28;20020;-42
2023/02/13 10:33:18;;;;;;;6.80;4.35;;;8.00;99.90;;;;;;5111927;28;20035;-43
2023/02/13 10:36:06;;;;;;;9.18;4.50;;;8.00;99.90;;;;;;5110998;28;20093;-38
2023/02/13 10:38:33;;;;;;;6.57;4.53;;;8.10;99.90;;;;;;5112017;28;20050;-44
2023/02/13 10:41:04;;;;;;;5.88;4.28;;;8.10;99.90;;;;;;5111726;28;20061;-44
2023/02/13 10:43:39;;;;;;;7.32;4.57;;;8.10;99.90;;;;;;5111649;28;20075;-44
2023/02/13 10:46:18;;;;;;;6.47;4.85;;;8.10;99.90;;;;;;5111563;28;20049;-40
2023/02/13 10:49:05;;;;;;;7.18;4.55;;;8.10;99.90;;;;;;5111696;28;20023;-44
2023/02/13 10:51:50;;;;;;;6.55;4.53;;;8.20;99.90;;;;;;5111618;28;20032;-41
2023/02/13 10:54:25;;;;;;;7.30;4.20;;;8.20;99.90;;;;;;5111156;28;20405;-44
2023/02/13 10:57:17;;;;;;;5.70;3.95;;;8.20;99.90;;;;;;5115732;28;20545;-44
2023/02/13 11:00:06;;;;;;;5.78;4.07;;;8.20;99.90;;;;;;5109882;28;20051;-43
2023/02/13 11:02:34;;;;;;;6.28;4.47;;;8.30;99.90;;;;;;5115833;28;20028;-44
2023/02/13 11:05:19;;;;;;;6.30;4.35;;;8.30;99.90;;;;;;5116826;28;20027;-44
2023/02/13 11:07:46;;;;;;;5.53;3.97;;;8.30;99.90;;;;;;5116178;28;20027;-44
2023/02/13 11:10:21;;;;;;;6.60;4.30;;;8.40;99.90;;;;;;5115590;27;20024;-42
2023/02/13 11:12:47;;;;;;;6.47;4.65;;;8.40;99.90;;;;;;5115620;28;20477;-41
2023/02/13 11:15:31;;;;;;;6.63;4.53;;;8.40;99.90;;;;;;5116028;28;20027;-44
2023/02/13 11:18:02;;;;;;;6.07;4.20;;;8.40;99.90;;;;;;5115384;28;20028;-43
2023/02/13 11:20:27;;;;;;;6.78;4.35;;;8.50;99.90;;;;;;5114330;28;20493;-41
2023/02/13 11:22:54;;;;;;;5.25;4.15;;;8.50;99.90;;;;;;5115496;28;20042;-43
2023/02/13 11:25:27;;;;;;;5.63;4.28;;;8.50;99.90;;;;;;5115945;28;20619;-43
2023/02/13 11:28:09;;;;;;;5.55;4.10;;;8.50;99.90;;;;;;5116658;28;20019;-43
2023/02/13 11:30:36;;;;;;;5.43;3.85;;;8.60;99.90;;;;;;5116429;28;20099;-44
2023/02/13 11:33:26;;;;;;;5.65;3.72;;;8.60;99.90;;;;;;5116078;28;20084;-42
2023/02/13 11:36:14;;;;;;;5.47;3.70;;;8.60;99.90;;;;;;5115796;28;20031;-43
2023/02/13 11:38:40;;;;;;;6.45;4.15;;;8.60;99.90;;;;;;5116399;28;20030;-44
2023/02/13 11:41:12;;;;;;;4.72;3.78;;;8.60;99.90;;;;;;5116122;28;20027;-43
2023/02/13 11:43:52;;;;;;;5.55;4.00;;;8.60;99.90;;;;;;5115011;28;20024;-43
2023/02/13 11:46:24;;;;;;;6.05;3.97;;;8.70;99.90;;;;;;5115266;28;20016;-43
2023/02/13 11:49:04;;;;;;;5.82;4.20;;;8.60;99.90;;;;;;5115290;28;20027;-44
2023/02/13 11:51:40;;;;;;;5.32;3.90;;;8.70;99.90;;;;;;5115240;28;20026;-33
2023/02/13 11:54:18;;;;;;;5.65;4.03;;;8.70;99.90;;;;;;5115768;28;20047;-32
2023/02/13 11:56:52;;;;;;;21.70;14.73;;;8.70;99.90;;;;;;5115138;28;20031;-39
2023/02/13 11:59:21;;;;;;;;;;;8.70;99.90;;;;;;5115044;28;20413;-35
2023/02/13 12:01:49;;;;;;;17.13;10.88;;;8.70;99.90;;;;;;5115076;28;19949;-35
2023/02/13 12:04:20;;;;;;;16.48;10.82;;;8.70;99.90;;;;;;5114646;28;20051;-35
2023/02/13 12:06:59;;;;;;;16.80;10.07;;;8.70;99.90;;;;;;5114239;28;20023;-36
2023/02/13 12:09:27;;;;;;;15.30;9.60;;;8.70;99.90;;;;;;5114582;28;20504;-40
2023/02/13 12:11:56;;;;;;;13.15;8.88;;;8.70;99.90;;;;;;5114449;28;20034;-33
2023/02/13 12:14:27;;;;;;;13.82;8.68;;;8.70;99.90;;;;;;5113121;28;20027;-35
2023/02/13 12:17:06;;;;;;;13.40;8.95;;;8.70;99.90;;;;;;5114758;28;20481;-36
2023/02/13 12:19:48;;;;;;;12.48;8.65;;;8.70;99.90;;;;;;5115084;28;20380;-39
2023/02/13 12:22:37;;;;;;;13.30;8.43;;;8.70;99.90;;;;;;5115086;28;20084;-37
2023/02/13 12:25:13;;;;;;;11.93;8.73;;;8.70;99.90;;;;;;5113798;28;20026;-35
2023/02/13 12:27:51;;;;;;;11.23;7.32;;;8.70;99.90;;;;;;5112756;28;20020;-37
2023/02/13 12:31:08;;;;;;;13.25;8.38;;;8.70;99.90;;;;;;5114425;28;20023;-38
2023/02/13 12:34:10;;;;;;;11.38;7.78;;;8.80;99.90;;;;;;5090672;28;20028;-33
2023/02/13 12:36:55;;;;;;;11.32;7.38;;;8.80;99.90;;;;;;5113694;28;20024;-38
2023/02/13 12:39:36;;;;;;;10.38;7.10;;;8.80;99.90;;;;;;5114629;28;20035;-40
2023/02/13 12:42:01;;;;;;;11.38;7.13;;;8.80;99.90;;;;;;5114758;28;20032;-37
2023/02/13 12:44:41;;;;;;;9.70;6.88;;;8.80;99.90;;;;;;5114088;27;20481;-37
2023/02/13 12:47:07;;;;;;;9.63;6.30;;;8.80;99.90;;;;;;5114041;28;20024;-42
2023/02/13 12:49:49;;;;;;;9.85;6.75;;;8.90;99.90;;;;;;5114580;28;20024;-39
2023/02/13 12:52:46;;;;;;;9.77;6.63;;;8.90;99.90;;;;;;5114231;28;20060;-35
2023/02/13 12:55:27;;;;;;;9.15;6.55;;;8.80;99.90;;;;;;5112543;28;20082;-35
2023/02/13 12:58:07;;;;;;;7.85;5.60;;;8.90;99.90;;;;;;5113763;28;20031;-38
2023/02/13 13:01:17;;;;;;;6.80;5.22;;;8.80;99.90;;;;;;5113888;28;20031;-38
2023/02/13 13:03:58;;;;;;;10.23;6.65;;;8.90;99.90;;;;;;5096861;28;20216;-42
2023/02/13 13:06:58;;;;;;;12.35;7.65;;;8.90;99.90;;;;;;5114185;28;20020;-39
2023/02/13 13:09:23;;;;;;;11.80;8.05;;;8.90;99.90;;;;;;5104406;28;20035;-40
2023/02/13 13:12:10;;;;;;;11.10;7.65;;;8.90;99.90;;;;;;5113772;28;20096;-35
2023/02/13 13:15:28;;;;;;;11.85;8.13;;;8.90;99.90;;;;;;5113653;28;20477;-38
2023/02/13 13:18:09;;;;;;;10.38;6.95;;;8.90;99.90;;;;;;5088820;28;20092;-38
2023/02/13 13:21:12;;;;;;;8.60;6.38;;;8.90;99.90;;;;;;5113154;28;20470;-38
2023/02/13 13:24:16;;;;;;;8.88;6.38;;;8.90;99.90;;;;;;5113294;28;20034;-34
2023/02/13 13:26:48;;;;;;;12.45;6.40;;;8.90;99.90;;;;;;5077822;28;20043;-38
2023/02/13 13:29:29;;;;;;;8.82;6.30;;;8.90;99.90;;;;;;5113488;28;20032;-36
2023/02/13 13:31:59;;;;;;;10.27;6.53;;;8.90;99.90;;;;;;5113058;28;20036;-41
2023/02/13 13:34:26;;;;;;;8.52;5.90;;;8.90;99.90;;;;;;5113062;28;20024;-37
2023/02/13 13:37:13;;;;;;;10.70;6.00;;;8.90;99.90;;;;;;5112754;28;20032;-35
2023/02/13 13:40:02;;;;;;;10.25;6.00;;;8.90;99.90;;;;;;5113071;28;20020;-40
2023/02/13 13:42:55;;;;;;;8.02;5.03;;;9.00;99.90;;;;;;5111670;28;20110;-36
2023/02/13 13:45:26;;;;;;;6.68;5.07;;;8.90;99.90;;;;;;5108198;28;20043;-39
2023/02/13 13:48:37;;;;;;;7.95;5.70;;;9.00;99.90;;;;;;5112720;28;20023;-34
2023/02/13 13:51:06;;;;;;;8.30;5.40;;;8.90;99.90;;;;;;5110653;28;20106;-37
2023/02/13 13:53:32;;;;;;;6.93;5.00;;;9.00;99.90;;;;;;5112816;28;20064;-36
2023/02/13 13:56:04;;;;;;;6.55;4.53;;;9.00;99.90;;;;;;5112183;28;20020;-35
2023/02/13 13:58:45;;;;;;;7.22;4.45;;;9.00;99.90;;;;;;5112608;28;20023;-37
2023/02/13 14:01:15;;;;;;;7.57;4.50;;;9.00;99.90;;;;;;5111226;28;20031;-36
2023/02/13 14:03:45;;;;;;;6.90;4.75;;;9.00;99.90;;;;;;5112455;28;20057;-36